createdAt,value
2023-01-23T00:02:01.562Z,5
2023-01-23T00:07:01.689Z,7
2023-01-23T00:12:01.581Z,5
2023-01-23T00:17:16.383Z,6
2023-01-23T00:22:01.013Z,6
2023-01-23T00:27:05.850Z,6
2023-01-23T00:32:01.640Z,6
2023-01-23T00:37:01.163Z,6
2023-01-23T00:42:01.046Z,6
2023-01-23T00:47:01.643Z,9
2023-01-23T00:52:01.637Z,15
2023-01-23T00:57:01.771Z,17
2023-01-23T01:02:01.755Z,19
2023-01-23T01:07:07.130Z,6
2023-01-23T01:12:01.689Z,6
2023-01-23T01:17:01.198Z,6
2023-01-23T01:22:01.118Z,7
2023-01-23T01:27:01.712Z,6
2023-01-23T01:32:01.225Z,7
2023-01-23T01:37:01.239Z,9
2023-01-23T01:42:01.227Z,8
2023-01-23T01:47:58.421Z,8
2023-01-23T01:52:01.760Z,7
2023-01-23T01:57:01.269Z,8
2023-01-23T02:02:01.243Z,10
2023-01-23T02:07:01.783Z,10
2023-01-23T02:12:01.184Z,8
2023-01-23T02:17:01.299Z,8
2023-01-23T02:22:01.699Z,9
2023-01-23T02:27:01.218Z,9
2023-01-23T02:32:01.410Z,9
2023-01-23T02:37:01.388Z,8
2023-01-23T02:57:02.167Z,8
2023-01-23T03:02:01.901Z,8
2023-01-23T03:07:01.259Z,9
2023-01-23T03:12:01.266Z,8
2023-01-23T03:17:01.291Z,7
2023-01-23T03:22:01.794Z,9
2023-01-23T03:27:01.362Z,9
2023-01-23T03:32:01.318Z,8
2023-01-23T03:37:01.464Z,9
2023-01-23T03:42:01.334Z,9
2023-01-23T03:47:01.347Z,9
2023-01-23T03:52:01.330Z,8
2023-01-23T03:57:01.546Z,6
2023-01-23T04:02:01.904Z,7
2023-01-23T04:07:01.870Z,7
2023-01-23T04:12:01.368Z,9
2023-01-23T04:17:01.492Z,7
2023-01-23T04:22:01.506Z,7
2023-01-23T04:27:01.686Z,9
2023-01-23T04:32:01.422Z,9
2023-01-23T04:37:01.563Z,10
2023-01-23T04:42:01.939Z,10
2023-01-23T04:47:01.435Z,9
2023-01-23T04:52:01.943Z,10
2023-01-23T04:57:01.482Z,13
2023-01-23T05:02:01.988Z,16
2023-01-23T05:07:01.987Z,17
2023-01-23T05:12:01.470Z,17
2023-01-23T05:17:01.528Z,18
2023-01-23T05:22:02.017Z,19
2023-01-23T05:27:02.048Z,19
2023-01-23T05:32:02.003Z,21
2023-01-23T05:37:02.163Z,23
2023-01-23T05:42:01.547Z,7
2023-01-23T05:47:02.041Z,9
2023-01-23T05:52:01.576Z,9
2023-01-23T05:57:01.702Z,10
2023-01-23T06:02:01.564Z,10
2023-01-23T06:07:01.591Z,8
2023-01-23T06:12:02.078Z,8
2023-01-23T06:17:01.700Z,8
2023-01-23T06:22:01.613Z,8
2023-01-23T06:27:02.128Z,6
2023-01-23T06:32:01.637Z,7
2023-01-23T06:37:01.757Z,7
2023-01-23T06:42:02.163Z,8
2023-01-23T06:47:01.793Z,8
2023-01-23T06:52:02.184Z,6
2023-01-23T06:57:02.307Z,8
2023-01-23T07:02:01.748Z,8
2023-01-23T07:07:01.686Z,8
2023-01-23T07:12:01.681Z,11
2023-01-23T07:17:02.673Z,10
2023-01-23T07:22:02.208Z,10
2023-01-23T07:37:02.705Z,10
2023-01-23T07:42:02.944Z,8
2023-01-23T07:47:02.257Z,12
2023-01-23T07:52:02.260Z,18
2023-01-23T07:57:02.396Z,25
2023-01-23T08:02:02.265Z,12
2023-01-23T08:07:02.275Z,10
2023-01-23T08:12:02.316Z,9
2023-01-23T08:17:02.315Z,9
2023-01-23T08:22:02.594Z,9
2023-01-23T08:27:01.894Z,8
2023-01-23T08:32:01.930Z,10
2023-01-23T08:37:01.861Z,10
2023-01-23T08:42:02.460Z,10
2023-01-23T08:47:01.861Z,9
2023-01-23T08:52:01.880Z,10
2023-01-23T08:57:01.886Z,11
2023-01-23T09:02:02.377Z,12
2023-01-23T09:07:02.379Z,10
2023-01-23T09:12:02.113Z,8
2023-01-23T09:17:02.514Z,11
2023-01-23T09:22:02.415Z,11
2023-01-23T09:27:01.950Z,10
2023-01-23T09:32:02.486Z,10
2023-01-23T09:37:02.568Z,22
2023-01-23T09:42:02.456Z,12
2023-01-23T09:47:02.746Z,15
2023-01-23T09:52:02.460Z,19
2023-01-23T09:57:02.575Z,20
2023-01-23T10:02:02.262Z,20
2023-01-23T10:07:02.501Z,27
2023-01-23T10:12:02.508Z,12
2023-01-23T10:17:02.163Z,8
2023-01-23T10:22:02.522Z,9
2023-01-23T10:27:02.037Z,11
2023-01-23T10:32:02.026Z,9
2023-01-23T10:37:02.657Z,12
2023-01-23T10:42:02.969Z,11
2023-01-23T10:47:02.557Z,11
2023-01-23T10:52:02.261Z,10
2023-01-23T10:57:02.305Z,12
2023-01-23T11:02:02.097Z,12
2023-01-23T11:07:02.106Z,12
2023-01-23T11:12:02.083Z,12
2023-01-23T11:37:03.077Z,12
2023-01-23T11:42:02.208Z,11
2023-01-23T11:47:02.161Z,15
2023-01-23T11:52:02.172Z,13
2023-01-23T11:57:02.297Z,11
2023-01-23T12:02:03.585Z,12
2023-01-23T12:07:02.187Z,13
2023-01-23T12:12:02.175Z,11
2023-01-23T12:17:02.843Z,13
2023-01-23T12:22:02.715Z,12
2023-01-23T12:27:02.444Z,11
2023-01-23T12:32:02.924Z,11
2023-01-23T12:37:12.015Z,14
2023-01-23T12:42:02.749Z,14
2023-01-23T12:47:02.284Z,15
2023-01-23T12:52:02.287Z,11
2023-01-23T12:57:02.887Z,13
2023-01-23T13:02:02.356Z,14
2023-01-23T13:07:02.290Z,12
2023-01-23T13:12:02.294Z,14
2023-01-23T13:17:02.551Z,14
2023-01-23T13:22:02.992Z,10
2023-01-23T13:27:02.327Z,12
2023-01-23T13:32:02.489Z,13
2023-01-23T13:37:02.494Z,14
2023-01-23T13:42:02.352Z,13
2023-01-23T13:47:02.355Z,16
2023-01-23T13:52:02.372Z,16
2023-01-23T13:57:02.496Z,20
2023-01-23T14:02:02.874Z,20
2023-01-23T14:07:02.529Z,26
2023-01-23T14:12:02.394Z,29
2023-01-23T14:17:02.528Z,11
2023-01-23T14:22:02.949Z,12
2023-01-23T14:27:07.570Z,11
2023-01-23T14:32:02.486Z,15
2023-01-23T14:37:03.082Z,13
2023-01-23T14:42:03.282Z,13
2023-01-23T14:47:02.462Z,12
2023-01-23T14:52:02.474Z,13
2023-01-23T14:57:02.589Z,14
2023-01-23T15:02:07.668Z,14
2023-01-23T15:07:02.998Z,14
2023-01-23T15:12:02.490Z,13
2023-01-23T15:17:03.189Z,13
2023-01-23T15:22:03.018Z,16
2023-01-23T15:27:03.047Z,18
2023-01-23T15:32:02.552Z,15
2023-01-23T15:37:02.650Z,16
2023-01-23T15:42:02.929Z,14
2023-01-23T15:47:02.563Z,16
2023-01-23T15:52:02.563Z,18
2023-01-23T15:57:08.139Z,17
2023-01-23T16:07:02.586Z,17
2023-01-23T16:12:02.601Z,17
2023-01-23T16:17:15.453Z,21
2023-01-23T16:22:05.148Z,18
2023-01-23T16:27:02.634Z,16
2023-01-23T16:32:02.808Z,14
2023-01-23T16:37:03.304Z,19
2023-01-23T16:42:02.669Z,15
2023-01-23T16:47:02.685Z,16
2023-01-23T17:07:03.642Z,16
2023-01-23T17:12:02.787Z,18
2023-01-23T17:17:03.362Z,16
2023-01-23T17:22:02.885Z,18
2023-01-23T17:27:02.838Z,19
2023-01-23T17:32:02.759Z,17
2023-01-23T17:37:03.248Z,16
2023-01-23T17:42:02.751Z,18
2023-01-23T17:47:03.398Z,19
2023-01-23T17:52:02.766Z,13
2023-01-23T17:57:03.278Z,17
2023-01-23T18:02:02.811Z,17
2023-01-23T18:07:02.922Z,15
2023-01-23T18:12:02.826Z,15
2023-01-23T18:17:03.462Z,18
2023-01-23T18:22:02.808Z,15
2023-01-23T18:27:02.980Z,15
2023-01-23T18:32:02.975Z,15
2023-01-23T18:37:03.422Z,16
2023-01-23T18:42:02.874Z,15
2023-01-23T18:47:02.987Z,13
2023-01-23T18:52:02.866Z,16
2023-01-23T18:57:03.422Z,15
2023-01-23T19:02:02.966Z,15
2023-01-23T19:07:03.017Z,14
2023-01-23T19:12:02.903Z,13
2023-01-23T19:17:03.418Z,11
2023-01-23T19:22:02.916Z,15
2023-01-23T19:27:03.048Z,13
2023-01-23T19:32:05.708Z,13
2023-01-23T19:37:02.956Z,16
2023-01-23T19:42:02.969Z,16
2023-01-23T19:47:03.125Z,15
2023-01-23T19:52:02.966Z,16
2023-01-23T19:57:02.982Z,18
2023-01-23T20:17:04.037Z,18
2023-01-23T20:22:03.026Z,17
2023-01-23T20:27:03.548Z,23
2023-01-23T20:32:03.123Z,25
2023-01-23T20:37:03.705Z,25
2023-01-23T20:42:03.093Z,25
2023-01-23T20:47:03.062Z,28
2023-01-23T20:52:03.074Z,14
2023-01-23T20:57:03.728Z,26
2023-01-23T21:02:03.110Z,28
2023-01-23T21:07:03.093Z,24
2023-01-23T21:12:03.105Z,29
2023-01-23T21:17:03.226Z,13
2023-01-23T21:22:03.152Z,17
2023-01-23T21:27:03.217Z,21
2023-01-23T21:32:03.153Z,25
2023-01-23T21:37:03.286Z,31
2023-01-23T21:42:03.670Z,26
2023-01-23T21:47:03.185Z,30
2023-01-23T21:52:08.627Z,26
2023-01-23T21:57:03.183Z,20
2023-01-23T22:02:03.189Z,16
2023-01-23T22:07:03.797Z,20
2023-01-23T22:12:03.337Z,23
2023-01-23T22:17:03.257Z,23
2023-01-23T22:22:03.754Z,25
2023-01-23T22:27:03.248Z,29
2023-01-23T22:32:03.487Z,32
2023-01-23T22:37:03.262Z,30
2023-01-23T22:52:04.138Z,30
2023-01-23T22:57:03.326Z,32
2023-01-23T23:02:03.822Z,31
2023-01-23T23:07:03.543Z,30
2023-01-23T23:12:03.435Z,30
2023-01-23T23:17:03.314Z,30
2023-01-23T23:22:03.854Z,34
2023-01-23T23:27:03.353Z,27
2023-01-23T23:32:04.061Z,33
2023-01-23T23:37:03.875Z,28
2023-01-23T23:42:03.881Z,32
2023-01-23T23:47:03.386Z,31
2023-01-23T23:52:03.627Z,33
